sensor_id;sensor_type;location;lat;lon;timestamp;temperature;humidity
5850;DHT22;2951;47.712;9.400;2024-02-16T00:01:02;6.50;99.90
5850;DHT22;2951;47.712;9.400;2024-02-16T00:03:30;6.60;99.90
5850;DHT22;2951;47.712;9.400;2024-02-16T00:05:58;6.60;99.90
5850;DHT22;2951;47.712;9.400;2024-02-16T00:08:25;6.60;99.90
5850;DHT22;2951;47.712;9.400;2024-02-16T00:10:52;6.70;99.90
5850;DHT22;2951;47.712;9.400;2024-02-16T00:13:22;6.70;99.90
5850;DHT22;2951;47.712;9.400;2024-02-16T00:15:56;6.80;99.90
5850;DHT22;2951;47.712;9.400;2024-02-16T00:18:23;6.80;99.90
5850;DHT22;2951;47.712;9.400;2024-02-16T00:20:50;6.70;99.90
5850;DHT22;2951;47.712;9.400;2024-02-16T00:23:17;6.70;99.90
5850;DHT22;2951;47.712;9.400;2024-02-16T00:25:45;6.70;99.90
5850;DHT22;2951;47.712;9.400;2024-02-16T00:28:12;6.60;99.90
5850;DHT22;2951;47.712;9.400;2024-02-16T00:30:39;6.70;99.90
5850;DHT22;2951;47.712;9.400;2024-02-16T00:33:07;6.80;99.90
5850;DHT22;2951;47.712;9.400;2024-02-16T00:35:34;6.80;99.90
5850;DHT22;2951;47.712;9.400;2024-02-16T00:38:00;6.80;99.90
5850;DHT22;2951;47.712;9.400;2024-02-16T00:40:27;6.80;99.90
5850;DHT22;2951;47.712;9.400;2024-02-16T00:42:54;6.70;99.90
5850;DHT22;2951;47.712;9.400;2024-02-16T00:45:21;6.70;99.90
5850;DHT22;2951;47.712;9.400;2024-02-16T00:47:48;6.60;99.90
5850;DHT22;2951;47.712;9.400;2024-02-16T00:50:15;6.60;99.90
5850;DHT22;2951;47.712;9.400;2024-02-16T00:52:42;6.70;99.90
5850;DHT22;2951;47.712;9.400;2024-02-16T00:55:11;6.80;99.90
5850;DHT22;2951;47.712;9.400;2024-02-16T00:57:39;6.90;99.90
5850;DHT22;2951;47.712;9.400;2024-02-16T01:00:06;6.90;99.90
5850;DHT22;2951;47.712;9.400;2024-02-16T01:02:33;6.90;99.90
5850;DHT22;2951;47.712;9.400;2024-02-16T01:05:00;6.90;99.90
5850;DHT22;2951;47.712;9.400;2024-02-16T01:07:29;6.90;99.90
5850;DHT22;2951;47.712;9.400;2024-02-16T01:09:57;6.90;99.90
5850;DHT22;2951;47.712;9.400;2024-02-16T01:12:24;6.80;99.90
5850;DHT22;2951;47.712;9.400;2024-02-16T01:14:51;6.80;99.90
5850;DHT22;2951;47.712;9.400;2024-02-16T01:17:22;6.90;99.90
5850;DHT22;2951;47.712;9.400;2024-02-16T01:19:52;6.90;99.90
5850;DHT22;2951;47.712;9.400;2024-02-16T01:22:19;6.90;99.90
5850;DHT22;2951;47.712;9.400;2024-02-16T01:24:46;6.90;99.90
5850;DHT22;2951;47.712;9.400;2024-02-16T01:27:13;6.90;99.90
5850;DHT22;2951;47.712;9.400;2024-02-16T01:29:40;6.80;99.90
5850;DHT22;2951;47.712;9.400;2024-02-16T01:32:06;6.80;99.90
5850;DHT22;2951;47.712;9.400;2024-02-16T01:34:33;6.80;99.90
5850;DHT22;2951;47.712;9.400;2024-02-16T01:37:00;6.90;99.90
5850;DHT22;2951;47.712;9.400;2024-02-16T01:39:27;6.80;99.90
5850;DHT22;2951;47.712;9.400;2024-02-16T01:41:54;6.80;99.90
5850;DHT22;2951;47.712;9.400;2024-02-16T01:44:21;6.80;99.90
5850;DHT22;2951;47.712;9.400;2024-02-16T01:46:49;6.70;99.90
5850;DHT22;2951;47.712;9.400;2024-02-16T01:49:16;6.50;99.90
5850;DHT22;2951;47.712;9.400;2024-02-16T01:51:42;6.50;99.90
5850;DHT22;2951;47.712;9.400;2024-02-16T01:54:11;6.50;99.90
5850;DHT22;2951;47.712;9.400;2024-02-16T01:56:38;6.50;99.90
5850;DHT22;2951;47.712;9.400;2024-02-16T01:59:05;6.50;99.90
5850;DHT22;2951;47.712;9.400;2024-02-16T02:01:32;6.50;99.90
5850;DHT22;2951;47.712;9.400;2024-02-16T02:03:59;6.50;99.90
5850;DHT22;2951;47.712;9.400;2024-02-16T02:06:26;6.50;99.90
5850;DHT22;2951;47.712;9.400;2024-02-16T02:08:54;6.50;99.90
5850;DHT22;2951;47.712;9.400;2024-02-16T02:11:21;6.50;99.90
5850;DHT22;2951;47.712;9.400;2024-02-16T02:13:48;6.40;99.90
5850;DHT22;2951;47.712;9.400;2024-02-16T02:16:20;6.30;99.90
5850;DHT22;2951;47.712;9.400;2024-02-16T02:18:47;6.20;99.90
5850;DHT22;2951;47.712;9.400;2024-02-16T02:21:14;6.20;99.90
5850;DHT22;2951;47.712;9.400;2024-02-16T02:23:43;6.20;99.90
5850;DHT22;2951;47.712;9.400;2024-02-16T02:26:10;6.20;99.90
5850;DHT22;2951;47.712;9.400;2024-02-16T02:28:37;6.30;99.90
5850;DHT22;2951;47.712;9.400;2024-02-16T02:31:05;6.20;99.90
5850;DHT22;2951;47.712;9.400;2024-02-16T02:33:32;6.10;99.90
5850;DHT22;2951;47.712;9.400;2024-02-16T02:35:59;6.10;99.90
5850;DHT22;2951;47.712;9.400;2024-02-16T02:38:26;6.10;99.90
5850;DHT22;2951;47.712;9.400;2024-02-16T02:40:53;6.10;99.90
5850;DHT22;2951;47.712;9.400;2024-02-16T02:43:20;6.10;99.90
5850;DHT22;2951;47.712;9.400;2024-02-16T02:45:49;6.10;99.90
5850;DHT22;2951;47.712;9.400;2024-02-16T02:48:16;6.10;99.90
5850;DHT22;2951;47.712;9.400;2024-02-16T02:50:43;6.10;99.90
5850;DHT22;2951;47.712;9.400;2024-02-16T02:53:11;6.10;99.90
5850;DHT22;2951;47.712;9.400;2024-02-16T02:55:37;6.10;99.90
5850;DHT22;2951;47.712;9.400;2024-02-16T02:58:04;6.00;99.90
5850;DHT22;2951;47.712;9.400;2024-02-16T03:00:31;5.90;99.90
5850;DHT22;2951;47.712;9.400;2024-02-16T03:02:58;6.00;99.90
5850;DHT22;2951;47.712;9.400;2024-02-16T03:05:24;5.90;99.90
5850;DHT22;2951;47.712;9.400;2024-02-16T03:07:52;5.90;99.90
5850;DHT22;2951;47.712;9.400;2024-02-16T03:10:19;5.80;99.90
5850;DHT22;2951;47.712;9.400;2024-02-16T03:12:48;5.80;99.90
5850;DHT22;2951;47.712;9.400;2024-02-16T03:15:16;5.80;99.90
5850;DHT22;2951;47.712;9.400;2024-02-16T03:18:12;5.80;99.90
5850;DHT22;2951;47.712;9.400;2024-02-16T03:20:39;5.80;99.90
5850;DHT22;2951;47.712;9.400;2024-02-16T03:23:06;5.80;99.90
5850;DHT22;2951;47.712;9.400;2024-02-16T03:25:33;5.70;99.90
5850;DHT22;2951;47.712;9.400;2024-02-16T03:28:01;5.60;99.90
5850;DHT22;2951;47.712;9.400;2024-02-16T03:30:28;5.60;99.90
5850;DHT22;2951;47.712;9.400;2024-02-16T03:32:55;5.70;99.90
5850;DHT22;2951;47.712;9.400;2024-02-16T03:35:22;5.70;99.90
5850;DHT22;2951;47.712;9.400;2024-02-16T03:37:49;5.80;99.90
5850;DHT22;2951;47.712;9.400;2024-02-16T03:40:17;5.80;99.90
5850;DHT22;2951;47.712;9.400;2024-02-16T03:42:44;5.70;99.90
5850;DHT22;2951;47.712;9.400;2024-02-16T03:45:11;5.60;99.90
5850;DHT22;2951;47.712;9.400;2024-02-16T03:47:39;5.60;99.90
5850;DHT22;2951;47.712;9.400;2024-02-16T03:50:06;5.60;99.90
5850;DHT22;2951;47.712;9.400;2024-02-16T03:52:33;5.50;99.90
5850;DHT22;2951;47.712;9.400;2024-02-16T03:55:00;5.40;99.90
5850;DHT22;2951;47.712;9.400;2024-02-16T03:57:27;5.30;99.90
5850;DHT22;2951;47.712;9.400;2024-02-16T03:59:54;5.30;99.90
5850;DHT22;2951;47.712;9.400;2024-02-16T04:02:21;5.20;99.90
5850;DHT22;2951;47.712;9.400;2024-02-16T04:04:47;5.10;99.90
5850;DHT22;2951;47.712;9.400;2024-02-16T04:07:14;5.20;99.90
5850;DHT22;2951;47.712;9.400;2024-02-16T04:09:41;5.20;99.90
5850;DHT22;2951;47.712;9.400;2024-02-16T04:12:08;5.20;99.90
5850;DHT22;2951;47.712;9.400;2024-02-16T04:14:37;5.20;99.90
5850;DHT22;2951;47.712;9.400;2024-02-16T04:17:14;5.20;99.90
5850;DHT22;2951;47.712;9.400;2024-02-16T04:19:41;5.20;99.90
5850;DHT22;2951;47.712;9.400;2024-02-16T04:22:08;5.20;99.90
5850;DHT22;2951;47.712;9.400;2024-02-16T04:24:34;5.20;99.90
5850;DHT22;2951;47.712;9.400;2024-02-16T04:27:01;5.10;99.90
5850;DHT22;2951;47.712;9.400;2024-02-16T04:29:29;5.00;99.90
5850;DHT22;2951;47.712;9.400;2024-02-16T04:31:58;5.00;99.90
5850;DHT22;2951;47.712;9.400;2024-02-16T04:34:25;4.90;99.90
5850;DHT22;2951;47.712;9.400;2024-02-16T04:36:52;4.90;99.90
5850;DHT22;2951;47.712;9.400;2024-02-16T04:39:19;4.90;99.90
5850;DHT22;2951;47.712;9.400;2024-02-16T04:41:46;5.00;99.90
5850;DHT22;2951;47.712;9.400;2024-02-16T04:44:13;5.00;99.90
5850;DHT22;2951;47.712;9.400;2024-02-16T04:46:40;5.00;99.90
5850;DHT22;2951;47.712;9.400;2024-02-16T04:49:07;5.00;99.90
5850;DHT22;2951;47.712;9.400;2024-02-16T04:51:34;5.10;99.90
5850;DHT22;2951;47.712;9.400;2024-02-16T04:54:01;5.10;99.90
5850;DHT22;2951;47.712;9.400;2024-02-16T04:56:28;5.10;99.90
5850;DHT22;2951;47.712;9.400;2024-02-16T04:58:54;5.10;99.90
5850;DHT22;2951;47.712;9.400;2024-02-16T05:01:21;5.10;99.90
5850;DHT22;2951;47.712;9.400;2024-02-16T05:03:48;5.00;99.90
5850;DHT22;2951;47.712;9.400;2024-02-16T05:06:14;4.90;99.90
5850;DHT22;2951;47.712;9.400;2024-02-16T05:08:42;4.90;99.90
5850;DHT22;2951;47.712;9.400;2024-02-16T05:11:09;4.90;99.90
5850;DHT22;2951;47.712;9.400;2024-02-16T05:13:36;4.90;99.90
5850;DHT22;2951;47.712;9.400;2024-02-16T05:16:10;4.90;99.90
5850;DHT22;2951;47.712;9.400;2024-02-16T05:18:37;4.90;99.90
5850;DHT22;2951;47.712;9.400;2024-02-16T05:21:04;4.80;99.90
5850;DHT22;2951;47.712;9.400;2024-02-16T05:23:31;4.70;99.90
5850;DHT22;2951;47.712;9.400;2024-02-16T05:25:58;4.80;99.90
5850;DHT22;2951;47.712;9.400;2024-02-16T05:28:25;4.80;99.90
5850;DHT22;2951;47.712;9.400;2024-02-16T05:30:52;4.70;99.90
5850;DHT22;2951;47.712;9.400;2024-02-16T05:33:18;4.60;99.90
5850;DHT22;2951;47.712;9.400;2024-02-16T05:35:45;4.70;99.90
5850;DHT22;2951;47.712;9.400;2024-02-16T05:38:18;4.70;99.90
5850;DHT22;2951;47.712;9.400;2024-02-16T05:40:59;4.70;99.90
5850;DHT22;2951;47.712;9.400;2024-02-16T05:43:27;4.70;99.90
5850;DHT22;2951;47.712;9.400;2024-02-16T05:45:53;4.70;99.90
5850;DHT22;2951;47.712;9.400;2024-02-16T05:48:20;4.70;99.90
5850;DHT22;2951;47.712;9.400;2024-02-16T05:50:48;4.70;99.90
5850;DHT22;2951;47.712;9.400;2024-02-16T05:53:15;4.70;99.90
5850;DHT22;2951;47.712;9.400;2024-02-16T05:55:42;4.70;99.90
5850;DHT22;2951;47.712;9.400;2024-02-16T05:58:13;4.60;99.90
5850;DHT22;2951;47.712;9.400;2024-02-16T06:00:39;4.50;99.90
5850;DHT22;2951;47.712;9.400;2024-02-16T06:03:09;4.50;99.90
5850;DHT22;2951;47.712;9.400;2024-02-16T06:05:40;4.50;99.90
5850;DHT22;2951;47.712;9.400;2024-02-16T06:08:07;4.40;99.90
5850;DHT22;2951;47.712;9.400;2024-02-16T06:10:34;4.40;99.90
5850;DHT22;2951;47.712;9.400;2024-02-16T06:13:00;4.40;99.90
5850;DHT22;2951;47.712;9.400;2024-02-16T06:15:27;4.40;99.90
5850;DHT22;2951;47.712;9.400;2024-02-16T06:17:55;4.40;99.90
5850;DHT22;2951;47.712;9.400;2024-02-16T06:20:22;4.40;99.90
5850;DHT22;2951;47.712;9.400;2024-02-16T06:22:49;4.40;99.90
5850;DHT22;2951;47.712;9.400;2024-02-16T06:25:15;4.40;99.90
5850;DHT22;2951;47.712;9.400;2024-02-16T06:27:42;4.50;99.90
5850;DHT22;2951;47.712;9.400;2024-02-16T06:30:10;4.50;99.90
5850;DHT22;2951;47.712;9.400;2024-02-16T06:32:40;4.50;99.90
5850;DHT22;2951;47.712;9.400;2024-02-16T06:35:09;4.50;99.90
5850;DHT22;2951;47.712;9.400;2024-02-16T06:37:37;4.50;99.90
5850;DHT22;2951;47.712;9.400;2024-02-16T06:40:08;4.40;99.90
5850;DHT22;2951;47.712;9.400;2024-02-16T06:42:40;4.50;99.90
5850;DHT22;2951;47.712;9.400;2024-02-16T06:45:07;4.40;99.90
5850;DHT22;2951;47.712;9.400;2024-02-16T06:47:33;4.40;99.90
5850;DHT22;2951;47.712;9.400;2024-02-16T06:50:00;4.40;99.90
5850;DHT22;2951;47.712;9.400;2024-02-16T06:52:27;4.40;99.90
5850;DHT22;2951;47.712;9.400;2024-02-16T06:54:54;4.40;99.90
5850;DHT22;2951;47.712;9.400;2024-02-16T06:57:21;4.30;99.90
5850;DHT22;2951;47.712;9.400;2024-02-16T06:59:48;4.40;99.90
5850;DHT22;2951;47.712;9.400;2024-02-16T07:02:15;4.50;99.90
5850;DHT22;2951;47.712;9.400;2024-02-16T07:04:44;4.50;99.90
5850;DHT22;2951;47.712;9.400;2024-02-16T07:07:12;4.60;99.90
5850;DHT22;2951;47.712;9.400;2024-02-16T07:09:39;4.70;99.90
5850;DHT22;2951;47.712;9.400;2024-02-16T07:12:10;4.70;99.90
5850;DHT22;2951;47.712;9.400;2024-02-16T07:14:39;4.70;99.90
5850;DHT22;2951;47.712;9.400;2024-02-16T07:17:08;4.80;99.90
5850;DHT22;2951;47.712;9.400;2024-02-16T07:19:36;4.90;99.90
5850;DHT22;2951;47.712;9.400;2024-02-16T07:22:03;5.00;99.90
5850;DHT22;2951;47.712;9.400;2024-02-16T07:24:33;5.00;99.90
5850;DHT22;2951;47.712;9.400;2024-02-16T07:27:02;5.10;99.90
5850;DHT22;2951;47.712;9.400;2024-02-16T07:29:29;5.20;99.90
5850;DHT22;2951;47.712;9.400;2024-02-16T07:31:56;5.40;99.90
5850;DHT22;2951;47.712;9.400;2024-02-16T07:34:24;5.50;99.90
5850;DHT22;2951;47.712;9.400;2024-02-16T07:36:51;5.60;99.90
5850;DHT22;2951;47.712;9.400;2024-02-16T07:39:19;5.70;99.90
5850;DHT22;2951;47.712;9.400;2024-02-16T07:41:49;5.80;99.90
5850;DHT22;2951;47.712;9.400;2024-02-16T07:44:15;5.80;99.90
5850;DHT22;2951;47.712;9.400;2024-02-16T07:46:42;5.90;99.90
5850;DHT22;2951;47.712;9.400;2024-02-16T07:49:10;6.00;99.90
5850;DHT22;2951;47.712;9.400;2024-02-16T07:51:38;6.10;99.90
5850;DHT22;2951;47.712;9.400;2024-02-16T07:54:04;6.20;99.90
5850;DHT22;2951;47.712;9.400;2024-02-16T07:56:33;6.50;99.90
5850;DHT22;2951;47.712;9.400;2024-02-16T07:59:00;6.60;99.90
5850;DHT22;2951;47.712;9.400;2024-02-16T08:01:26;6.80;99.90
5850;DHT22;2951;47.712;9.400;2024-02-16T08:03:53;7.00;99.90
5850;DHT22;2951;47.712;9.400;2024-02-16T08:06:24;7.10;99.90
5850;DHT22;2951;47.712;9.400;2024-02-16T08:08:51;7.40;99.90
5850;DHT22;2951;47.712;9.400;2024-02-16T08:11:18;7.60;99.90
5850;DHT22;2951;47.712;9.400;2024-02-16T08:13:44;7.70;99.90
5850;DHT22;2951;47.712;9.400;2024-02-16T08:16:13;7.90;99.90
5850;DHT22;2951;47.712;9.400;2024-02-16T08:18:39;8.00;99.90
5850;DHT22;2951;47.712;9.400;2024-02-16T08:21:06;8.00;99.90
5850;DHT22;2951;47.712;9.400;2024-02-16T08:23:33;8.10;99.90
5850;DHT22;2951;47.712;9.400;2024-02-16T08:26:02;8.20;99.90
5850;DHT22;2951;47.712;9.400;2024-02-16T08:28:29;8.30;99.90
5850;DHT22;2951;47.712;9.400;2024-02-16T08:30:56;8.40;99.90
5850;DHT22;2951;47.712;9.400;2024-02-16T08:33:23;8.40;99.90
5850;DHT22;2951;47.712;9.400;2024-02-16T08:35:49;8.60;99.90
5850;DHT22;2951;47.712;9.400;2024-02-16T08:38:17;8.70;99.90
5850;DHT22;2951;47.712;9.400;2024-02-16T08:40:44;8.80;99.90
5850;DHT22;2951;47.712;9.400;2024-02-16T08:43:10;8.80;99.90
5850;DHT22;2951;47.712;9.400;2024-02-16T08:45:37;8.80;99.90
5850;DHT22;2951;47.712;9.400;2024-02-16T08:48:04;8.80;99.90
5850;DHT22;2951;47.712;9.400;2024-02-16T08:50:31;9.00;99.90
5850;DHT22;2951;47.712;9.400;2024-02-16T08:52:58;9.20;99.90
5850;DHT22;2951;47.712;9.400;2024-02-16T08:55:26;9.40;99.90
5850;DHT22;2951;47.712;9.400;2024-02-16T08:57:53;9.60;99.90
5850;DHT22;2951;47.712;9.400;2024-02-16T09:00:20;9.70;99.90
5850;DHT22;2951;47.712;9.400;2024-02-16T09:02:46;9.90;99.90
5850;DHT22;2951;47.712;9.400;2024-02-16T09:05:13;10.20;99.90
5850;DHT22;2951;47.712;9.400;2024-02-16T09:07:41;10.30;99.90
5850;DHT22;2951;47.712;9.400;2024-02-16T09:10:07;10.50;99.90
5850;DHT22;2951;47.712;9.400;2024-02-16T09:12:35;10.70;99.90
5850;DHT22;2951;47.712;9.400;2024-02-16T09:15:02;10.80;99.90
5850;DHT22;2951;47.712;9.400;2024-02-16T09:17:29;11.00;99.90
5850;DHT22;2951;47.712;9.400;2024-02-16T09:19:56;10.90;99.90
5850;DHT22;2951;47.712;9.400;2024-02-16T09:22:23;11.00;99.90
5850;DHT22;2951;47.712;9.400;2024-02-16T09:25:02;11.20;99.90
5850;DHT22;2951;47.712;9.400;2024-02-16T09:27:29;11.30;99.90
5850;DHT22;2951;47.712;9.400;2024-02-16T09:29:56;11.40;99.90
5850;DHT22;2951;47.712;9.400;2024-02-16T09:32:23;11.40;99.90
5850;DHT22;2951;47.712;9.400;2024-02-16T09:34:50;11.50;99.90
5850;DHT22;2951;47.712;9.400;2024-02-16T09:37:18;11.50;99.90
5850;DHT22;2951;47.712;9.400;2024-02-16T09:39:45;11.50;99.90
5850;DHT22;2951;47.712;9.400;2024-02-16T09:42:11;11.50;99.90
5850;DHT22;2951;47.712;9.400;2024-02-16T09:44:41;11.50;99.90
5850;DHT22;2951;47.712;9.400;2024-02-16T09:47:09;11.60;99.90
5850;DHT22;2951;47.712;9.400;2024-02-16T09:49:38;11.60;99.90
5850;DHT22;2951;47.712;9.400;2024-02-16T09:52:08;11.60;99.90
5850;DHT22;2951;47.712;9.400;2024-02-16T09:54:37;11.50;99.90
5850;DHT22;2951;47.712;9.400;2024-02-16T09:57:05;11.50;99.90
5850;DHT22;2951;47.712;9.400;2024-02-16T09:59:32;11.50;99.90
5850;DHT22;2951;47.712;9.400;2024-02-16T10:02:00;11.50;99.90
5850;DHT22;2951;47.712;9.400;2024-02-16T10:04:27;11.60;99.90
5850;DHT22;2951;47.712;9.400;2024-02-16T10:06:56;11.70;99.90
5850;DHT22;2951;47.712;9.400;2024-02-16T10:09:25;11.80;99.90
5850;DHT22;2951;47.712;9.400;2024-02-16T10:11:52;12.00;99.90
5850;DHT22;2951;47.712;9.400;2024-02-16T10:14:24;12.10;99.90
5850;DHT22;2951;47.712;9.400;2024-02-16T10:17:02;12.20;99.90
5850;DHT22;2951;47.712;9.400;2024-02-16T10:19:31;12.30;99.90
5850;DHT22;2951;47.712;9.400;2024-02-16T10:22:12;12.40;99.90
5850;DHT22;2951;47.712;9.400;2024-02-16T10:24:39;12.50;99.90
5850;DHT22;2951;47.712;9.400;2024-02-16T10:27:16;12.60;99.90
5850;DHT22;2951;47.712;9.400;2024-02-16T10:29:48;12.60;99.90
5850;DHT22;2951;47.712;9.400;2024-02-16T10:32:20;12.60;99.90
5850;DHT22;2951;47.712;9.400;2024-02-16T10:34:47;12.70;99.90
5850;DHT22;2951;47.712;9.400;2024-02-16T10:37:14;12.70;99.90
5850;DHT22;2951;47.712;9.400;2024-02-16T10:39:41;12.70;99.90
5850;DHT22;2951;47.712;9.400;2024-02-16T10:42:09;12.70;99.90
5850;DHT22;2951;47.712;9.400;2024-02-16T10:44:36;12.70;99.90
5850;DHT22;2951;47.712;9.400;2024-02-16T10:47:03;12.70;99.90
5850;DHT22;2951;47.712;9.400;2024-02-16T10:49:33;12.80;99.90
5850;DHT22;2951;47.712;9.400;2024-02-16T10:52:00;12.80;99.90
5850;DHT22;2951;47.712;9.400;2024-02-16T10:54:29;13.00;99.90
5850;DHT22;2951;47.712;9.400;2024-02-16T10:56:57;13.10;99.90
5850;DHT22;2951;47.712;9.400;2024-02-16T10:59:24;13.40;99.90
5850;DHT22;2951;47.712;9.400;2024-02-16T11:01:59;13.80;99.90
5850;DHT22;2951;47.712;9.400;2024-02-16T11:04:35;14.30;99.90
5850;DHT22;2951;47.712;9.400;2024-02-16T11:07:09;14.50;99.90
5850;DHT22;2951;47.712;9.400;2024-02-16T11:09:38;14.70;99.90
5850;DHT22;2951;47.712;9.400;2024-02-16T11:12:05;14.80;99.90
5850;DHT22;2951;47.712;9.400;2024-02-16T11:14:36;14.80;99.90
5850;DHT22;2951;47.712;9.400;2024-02-16T11:17:10;15.20;99.90
5850;DHT22;2951;47.712;9.400;2024-02-16T11:19:37;15.40;99.90
5850;DHT22;2951;47.712;9.400;2024-02-16T11:22:04;15.40;99.90
5850;DHT22;2951;47.712;9.400;2024-02-16T11:24:35;15.50;99.90
5850;DHT22;2951;47.712;9.400;2024-02-16T11:27:07;15.60;99.90
5850;DHT22;2951;47.712;9.400;2024-02-16T11:29:35;15.50;99.90
5850;DHT22;2951;47.712;9.400;2024-02-16T11:32:02;15.40;99.90
5850;DHT22;2951;47.712;9.400;2024-02-16T11:34:29;15.30;99.90
5850;DHT22;2951;47.712;9.400;2024-02-16T11:36:58;15.60;99.90
5850;DHT22;2951;47.712;9.400;2024-02-16T11:39:25;15.60;99.90
5850;DHT22;2951;47.712;9.400;2024-02-16T11:42:26;15.80;99.90
5850;DHT22;2951;47.712;9.400;2024-02-16T11:44:51;15.50;99.90
5850;DHT22;2951;47.712;9.400;2024-02-16T11:47:19;15.50;99.90
5850;DHT22;2951;47.712;9.400;2024-02-16T11:49:46;15.30;99.90
5850;DHT22;2951;47.712;9.400;2024-02-16T11:52:15;15.10;99.90
5850;DHT22;2951;47.712;9.400;2024-02-16T11:54:44;15.30;99.90
5850;DHT22;2951;47.712;9.400;2024-02-16T11:57:11;15.20;99.90
5850;DHT22;2951;47.712;9.400;2024-02-16T11:59:38;15.40;99.90
5850;DHT22;2951;47.712;9.400;2024-02-16T12:02:05;15.60;99.90
5850;DHT22;2951;47.712;9.400;2024-02-16T12:04:32;15.80;99.90
5850;DHT22;2951;47.712;9.400;2024-02-16T12:07:07;16.00;99.90
5850;DHT22;2951;47.712;9.400;2024-02-16T12:09:33;16.10;99.90
5850;DHT22;2951;47.712;9.400;2024-02-16T12:12:02;16.10;99.90
5850;DHT22;2951;47.712;9.400;2024-02-16T12:14:30;16.10;99.90
5850;DHT22;2951;47.712;9.400;2024-02-16T12:16:57;16.00;99.90
5850;DHT22;2951;47.712;9.400;2024-02-16T12:19:24;16.20;99.90
5850;DHT22;2951;47.712;9.400;2024-02-16T12:21:52;16.30;99.90
5850;DHT22;2951;47.712;9.400;2024-02-16T12:24:19;16.20;99.90
5850;DHT22;2951;47.712;9.400;2024-02-16T12:26:46;16.30;99.90
5850;DHT22;2951;47.712;9.400;2024-02-16T12:29:13;16.30;99.90
5850;DHT22;2951;47.712;9.400;2024-02-16T12:31:41;16.40;99.90
5850;DHT22;2951;47.712;9.400;2024-02-16T12:34:08;16.60;99.90
5850;DHT22;2951;47.712;9.400;2024-02-16T12:36:35;16.60;99.90
5850;DHT22;2951;47.712;9.400;2024-02-16T12:39:02;16.40;99.90
5850;DHT22;2951;47.712;9.400;2024-02-16T12:41:32;16.40;99.90
5850;DHT22;2951;47.712;9.400;2024-02-16T12:44:03;16.40;99.90
5850;DHT22;2951;47.712;9.400;2024-02-16T12:46:31;16.70;99.90
5850;DHT22;2951;47.712;9.400;2024-02-16T12:48:58;16.50;99.90
5850;DHT22;2951;47.712;9.400;2024-02-16T12:51:25;16.90;99.90
5850;DHT22;2951;47.712;9.400;2024-02-16T12:53:52;16.90;99.90
5850;DHT22;2951;47.712;9.400;2024-02-16T12:56:19;17.00;99.90
5850;DHT22;2951;47.712;9.400;2024-02-16T12:58:50;16.90;99.90
5850;DHT22;2951;47.712;9.400;2024-02-16T13:01:16;16.70;99.90
5850;DHT22;2951;47.712;9.400;2024-02-16T13:03:51;16.80;99.90
5850;DHT22;2951;47.712;9.400;2024-02-16T13:06:20;16.90;99.90
5850;DHT22;2951;47.712;9.400;2024-02-16T13:08:49;17.10;99.90
5850;DHT22;2951;47.712;9.400;2024-02-16T13:11:17;17.10;99.90
5850;DHT22;2951;47.712;9.400;2024-02-16T13:13:44;17.20;99.90
5850;DHT22;2951;47.712;9.400;2024-02-16T13:16:12;17.10;99.90
5850;DHT22;2951;47.712;9.400;2024-02-16T13:18:39;17.10;99.90
5850;DHT22;2951;47.712;9.400;2024-02-16T13:21:06;16.90;99.90
5850;DHT22;2951;47.712;9.400;2024-02-16T13:23:33;16.80;99.90
5850;DHT22;2951;47.712;9.400;2024-02-16T13:26:00;16.70;99.90
5850;DHT22;2951;47.712;9.400;2024-02-16T13:28:29;16.80;99.90
5850;DHT22;2951;47.712;9.400;2024-02-16T13:30:55;16.70;99.90
5850;DHT22;2951;47.712;9.400;2024-02-16T13:33:22;16.70;99.90
5850;DHT22;2951;47.712;9.400;2024-02-16T13:35:49;16.60;99.90
5850;DHT22;2951;47.712;9.400;2024-02-16T13:38:16;16.60;99.90
5850;DHT22;2951;47.712;9.400;2024-02-16T13:40:43;16.60;99.90
5850;DHT22;2951;47.712;9.400;2024-02-16T13:43:09;16.60;99.90
5850;DHT22;2951;47.712;9.400;2024-02-16T13:45:47;16.60;99.90
5850;DHT22;2951;47.712;9.400;2024-02-16T13:48:17;16.60;99.90
5850;DHT22;2951;47.712;9.400;2024-02-16T13:50:45;16.60;99.90
5850;DHT22;2951;47.712;9.400;2024-02-16T13:53:12;16.60;99.90
5850;DHT22;2951;47.712;9.400;2024-02-16T13:55:42;16.60;99.90
5850;DHT22;2951;47.712;9.400;2024-02-16T13:58:34;16.20;99.90
5850;DHT22;2951;47.712;9.400;2024-02-16T14:01:06;16.10;99.90
5850;DHT22;2951;47.712;9.400;2024-02-16T14:03:33;15.80;99.90
5850;DHT22;2951;47.712;9.400;2024-02-16T14:06:00;15.80;99.90
5850;DHT22;2951;47.712;9.400;2024-02-16T14:08:29;16.00;99.90
5850;DHT22;2951;47.712;9.400;2024-02-16T14:10:57;16.00;99.90
5850;DHT22;2951;47.712;9.400;2024-02-16T14:13:23;15.80;99.90
5850;DHT22;2951;47.712;9.400;2024-02-16T14:15:54;15.80;99.90
5850;DHT22;2951;47.712;9.400;2024-02-16T14:18:20;15.70;99.90
5850;DHT22;2951;47.712;9.400;2024-02-16T14:20:56;15.60;99.90
5850;DHT22;2951;47.712;9.400;2024-02-16T14:23:23;15.70;99.90
5850;DHT22;2951;47.712;9.400;2024-02-16T14:25:50;15.90;99.90
5850;DHT22;2951;47.712;9.400;2024-02-16T14:28:17;16.10;99.90
5850;DHT22;2951;47.712;9.400;2024-02-16T14:30:43;15.80;99.90
5850;DHT22;2951;47.712;9.400;2024-02-16T14:33:10;15.70;99.90
5850;DHT22;2951;47.712;9.400;2024-02-16T14:35:37;15.70;99.90
5850;DHT22;2951;47.712;9.400;2024-02-16T14:38:05;15.80;99.90
5850;DHT22;2951;47.712;9.400;2024-02-16T14:40:32;15.90;99.90
5850;DHT22;2951;47.712;9.400;2024-02-16T14:43:00;16.10;99.90
5850;DHT22;2951;47.712;9.400;2024-02-16T14:45:27;16.20;99.90
5850;DHT22;2951;47.712;9.400;2024-02-16T14:47:54;16.20;99.90
5850;DHT22;2951;47.712;9.400;2024-02-16T14:50:21;15.90;99.90
5850;DHT22;2951;47.712;9.400;2024-02-16T14:52:49;15.70;99.90
5850;DHT22;2951;47.712;9.400;2024-02-16T14:55:16;15.60;99.90
5850;DHT22;2951;47.712;9.400;2024-02-16T14:57:43;15.50;99.90
5850;DHT22;2951;47.712;9.400;2024-02-16T15:00:11;15.40;99.90
5850;DHT22;2951;47.712;9.400;2024-02-16T15:02:39;15.40;99.90
5850;DHT22;2951;47.712;9.400;2024-02-16T15:05:08;15.20;99.90
5850;DHT22;2951;47.712;9.400;2024-02-16T15:07:35;14.80;99.90
5850;DHT22;2951;47.712;9.400;2024-02-16T15:10:02;14.70;99.90
5850;DHT22;2951;47.712;9.400;2024-02-16T15:12:29;14.60;99.90
5850;DHT22;2951;47.712;9.400;2024-02-16T15:14:59;14.60;99.90
5850;DHT22;2951;47.712;9.400;2024-02-16T15:17:31;14.60;99.90
5850;DHT22;2951;47.712;9.400;2024-02-16T15:19:58;14.60;99.90
5850;DHT22;2951;47.712;9.400;2024-02-16T15:22:25;14.60;99.90
5850;DHT22;2951;47.712;9.400;2024-02-16T15:25:01;14.60;99.90
5850;DHT22;2951;47.712;9.400;2024-02-16T15:27:28;14.50;99.90
5850;DHT22;2951;47.712;9.400;2024-02-16T15:29:55;14.50;99.90
5850;DHT22;2951;47.712;9.400;2024-02-16T15:32:22;14.40;99.90
5850;DHT22;2951;47.712;9.400;2024-02-16T15:34:52;14.40;99.90
5850;DHT22;2951;47.712;9.400;2024-02-16T15:37:20;14.40;99.90
5850;DHT22;2951;47.712;9.400;2024-02-16T15:39:47;14.40;99.90
5850;DHT22;2951;47.712;9.400;2024-02-16T15:42:18;14.40;99.90
5850;DHT22;2951;47.712;9.400;2024-02-16T15:44:45;14.30;99.90
5850;DHT22;2951;47.712;9.400;2024-02-16T15:47:11;14.30;99.90
5850;DHT22;2951;47.712;9.400;2024-02-16T15:49:38;14.30;99.90
5850;DHT22;2951;47.712;9.400;2024-02-16T15:52:05;14.30;99.90
5850;DHT22;2951;47.712;9.400;2024-02-16T15:54:34;14.30;99.90
5850;DHT22;2951;47.712;9.400;2024-02-16T15:57:03;14.30;99.90
5850;DHT22;2951;47.712;9.400;2024-02-16T15:59:29;14.20;99.90
5850;DHT22;2951;47.712;9.400;2024-02-16T16:01:56;14.20;99.90
5850;DHT22;2951;47.712;9.400;2024-02-16T16:04:24;14.20;99.90
5850;DHT22;2951;47.712;9.400;2024-02-16T16:06:51;14.10;99.90
5850;DHT22;2951;47.712;9.400;2024-02-16T16:09:17;14.10;99.90
5850;DHT22;2951;47.712;9.400;2024-02-16T16:11:46;14.10;99.90
5850;DHT22;2951;47.712;9.400;2024-02-16T16:14:18;14.20;99.90